sensor_id;sensor_type;location;lat;lon;timestamp;temperature;humidity
26049;DHT22;13822;51.568;5.086;2023-04-21T05:15:56;7.50;99.90
26049;DHT22;13822;51.568;5.086;2023-04-21T05:20:59;7.50;99.90
26049;DHT22;13822;51.568;5.086;2023-04-21T05:26:01;7.60;99.90
26049;DHT22;13822;51.568;5.086;2023-04-21T05:31:05;7.70;99.90
26049;DHT22;13822;51.568;5.086;2023-04-21T05:36:07;7.70;99.90
26049;DHT22;13822;51.568;5.086;2023-04-21T05:41:12;7.70;99.90
26049;DHT22;13822;51.568;5.086;2023-04-21T05:46:14;7.80;99.90
26049;DHT22;13822;51.568;5.086;2023-04-21T05:51:16;7.80;99.90
26049;DHT22;13822;51.568;5.086;2023-04-21T05:56:18;7.80;99.90
26049;DHT22;13822;51.568;5.086;2023-04-21T06:01:20;7.90;99.90
26049;DHT22;13822;51.568;5.086;2023-04-21T06:06:22;7.90;99.90
26049;DHT22;13822;51.568;5.086;2023-04-21T06:11:24;8.00;99.90
26049;DHT22;13822;51.568;5.086;2023-04-21T06:16:26;8.00;99.90
26049;DHT22;13822;51.568;5.086;2023-04-21T06:21:28;8.10;99.90
26049;DHT22;13822;51.568;5.086;2023-04-21T06:26:30;8.10;99.90
26049;DHT22;13822;51.568;5.086;2023-04-21T06:31:32;8.20;99.90
26049;DHT22;13822;51.568;5.086;2023-04-21T06:36:34;8.30;99.90
26049;DHT22;13822;51.568;5.086;2023-04-21T06:41:36;8.40;99.90
26049;DHT22;13822;51.568;5.086;2023-04-21T06:46:39;8.50;99.90
26049;DHT22;13822;51.568;5.086;2023-04-21T06:51:41;8.60;99.90
26049;DHT22;13822;51.568;5.086;2023-04-21T06:56:43;8.60;99.90
26049;DHT22;13822;51.568;5.086;2023-04-21T07:01:45;8.60;99.90
26049;DHT22;13822;51.568;5.086;2023-04-21T07:06:49;8.70;99.90
26049;DHT22;13822;51.568;5.086;2023-04-21T07:11:51;8.80;99.90
26049;DHT22;13822;51.568;5.086;2023-04-21T07:16:53;8.90;99.90
26049;DHT22;13822;51.568;5.086;2023-04-21T07:21:57;9.00;99.90
26049;DHT22;13822;51.568;5.086;2023-04-21T07:26:59;9.10;99.90
26049;DHT22;13822;51.568;5.086;2023-04-21T07:32:03;9.20;99.90
26049;DHT22;13822;51.568;5.086;2023-04-21T07:37:05;9.20;99.90
26049;DHT22;13822;51.568;5.086;2023-04-21T07:42:07;9.20;99.90
26049;DHT22;13822;51.568;5.086;2023-04-21T07:47:10;9.30;99.90
26049;DHT22;13822;51.568;5.086;2023-04-21T07:52:12;9.40;99.90
26049;DHT22;13822;51.568;5.086;2023-04-21T07:57:13;9.50;99.90
26049;DHT22;13822;51.568;5.086;2023-04-21T08:02:15;9.50;99.90
26049;DHT22;13822;51.568;5.086;2023-04-21T08:07:18;9.70;99.90
26049;DHT22;13822;51.568;5.086;2023-04-21T08:12:20;9.70;99.90
26049;DHT22;13822;51.568;5.086;2023-04-21T08:17:21;9.80;99.90
26049;DHT22;13822;51.568;5.086;2023-04-21T08:22:24;10.00;99.90
26049;DHT22;13822;51.568;5.086;2023-04-21T08:27:26;10.20;99.90
26049;DHT22;13822;51.568;5.086;2023-04-21T08:32:27;10.40;99.90
26049;DHT22;13822;51.568;5.086;2023-04-21T08:37:29;10.60;99.90
26049;DHT22;13822;51.568;5.086;2023-04-21T08:42:32;10.80;99.90
26049;DHT22;13822;51.568;5.086;2023-04-21T08:47:35;11.00;99.90
26049;DHT22;13822;51.568;5.086;2023-04-21T08:52:39;11.30;99.90
26049;DHT22;13822;51.568;5.086;2023-04-21T08:57:41;11.30;99.90
26049;DHT22;13822;51.568;5.086;2023-04-21T09:02:51;11.30;99.90
26049;DHT22;13822;51.568;5.086;2023-04-21T09:08:12;11.50;99.90
26049;DHT22;13822;51.568;5.086;2023-04-21T09:13:17;11.70;99.90
26049;DHT22;13822;51.568;5.086;2023-04-21T09:18:23;11.90;99.90
26049;DHT22;13822;51.568;5.086;2023-04-21T09:23:26;12.10;99.90
26049;DHT22;13822;51.568;5.086;2023-04-21T09:28:28;12.30;99.90
26049;DHT22;13822;51.568;5.086;2023-04-21T09:33:32;12.50;99.90
26049;DHT22;13822;51.568;5.086;2023-04-21T09:38:58;12.50;99.90
26049;DHT22;13822;51.568;5.086;2023-04-21T09:44:05;12.50;99.90
26049;DHT22;13822;51.568;5.086;2023-04-21T09:49:07;12.60;99.90
26049;DHT22;13822;51.568;5.086;2023-04-21T09:54:12;12.70;99.90
26049;DHT22;13822;51.568;5.086;2023-04-21T09:59:23;12.90;99.90
26049;DHT22;13822;51.568;5.086;2023-04-21T10:04:27;13.20;99.90
26049;DHT22;13822;51.568;5.086;2023-04-21T10:09:53;13.40;99.90
26049;DHT22;13822;51.568;5.086;2023-04-21T10:14:56;13.60;99.90
26049;DHT22;13822;51.568;5.086;2023-04-21T10:19:58;14.00;99.90
26049;DHT22;13822;51.568;5.086;2023-04-21T10:25:02;14.00;99.90
26049;DHT22;13822;51.568;5.086;2023-04-21T10:35:23;14.10;99.90
26049;DHT22;13822;51.568;5.086;2023-04-21T10:40:34;14.40;99.90
26049;DHT22;13822;51.568;5.086;2023-04-21T10:45:45;14.50;99.90
26049;DHT22;13822;51.568;5.086;2023-04-21T10:50:46;14.70;99.90
26049;DHT22;13822;51.568;5.086;2023-04-21T10:55:49;14.80;99.90
26049;DHT22;13822;51.568;5.086;2023-04-21T11:00:54;15.00;99.90
26049;DHT22;13822;51.568;5.086;2023-04-21T11:05:57;15.30;99.90
26049;DHT22;13822;51.568;5.086;2023-04-21T11:10:59;15.70;99.90
26049;DHT22;13822;51.568;5.086;2023-04-21T11:16:02;16.00;99.90
26049;DHT22;13822;51.568;5.086;2023-04-21T11:21:10;16.00;99.90
26049;DHT22;13822;51.568;5.086;2023-04-21T11:26:16;15.90;99.90
26049;DHT22;13822;51.568;5.086;2023-04-21T11:31:18;15.90;99.90
26049;DHT22;13822;51.568;5.086;2023-04-21T11:36:21;16.40;99.90
26049;DHT22;13822;51.568;5.086;2023-04-21T11:41:24;16.30;99.90
26049;DHT22;13822;51.568;5.086;2023-04-21T11:46:26;16.50;99.90
26049;DHT22;13822;51.568;5.086;2023-04-21T11:51:36;16.80;99.90
26049;DHT22;13822;51.568;5.086;2023-04-21T11:56:39;16.70;99.90
26049;DHT22;13822;51.568;5.086;2023-04-21T12:01:45;16.80;99.90
26049;DHT22;13822;51.568;5.086;2023-04-21T12:06:58;17.40;99.90
26049;DHT22;13822;51.568;5.086;2023-04-21T12:12:02;17.80;99.90
26049;DHT22;13822;51.568;5.086;2023-04-21T12:17:05;17.80;99.90
26049;DHT22;13822;51.568;5.086;2023-04-21T12:22:08;18.00;96.70
26049;DHT22;13822;51.568;5.086;2023-04-21T12:27:11;18.60;97.70
26049;DHT22;13822;51.568;5.086;2023-04-21T12:32:13;18.80;96.80
26049;DHT22;13822;51.568;5.086;2023-04-21T12:37:17;19.00;97.10
26049;DHT22;13822;51.568;5.086;2023-04-21T12:42:19;19.20;92.30
26049;DHT22;13822;51.568;5.086;2023-04-21T12:47:21;19.20;94.50
26049;DHT22;13822;51.568;5.086;2023-04-21T12:52:23;18.70;93.00
26049;DHT22;13822;51.568;5.086;2023-04-21T12:57:24;18.70;94.30
26049;DHT22;13822;51.568;5.086;2023-04-21T13:02:27;17.90;93.60
26049;DHT22;13822;51.568;5.086;2023-04-21T13:07:29;18.20;95.40
26049;DHT22;13822;51.568;5.086;2023-04-21T13:12:32;18.50;96.00
26049;DHT22;13822;51.568;5.086;2023-04-21T13:17:34;19.00;98.20
26049;DHT22;13822;51.568;5.086;2023-04-21T13:22:35;19.60;89.00
26049;DHT22;13822;51.568;5.086;2023-04-21T13:27:37;20.20;80.30
26049;DHT22;13822;51.568;5.086;2023-04-21T13:32:41;20.80;81.60
26049;DHT22;13822;51.568;5.086;2023-04-21T13:37:43;21.20;76.80
26049;DHT22;13822;51.568;5.086;2023-04-21T13:42:45;21.50;68.90
26049;DHT22;13822;51.568;5.086;2023-04-21T13:47:47;21.80;64.30
26049;DHT22;13822;51.568;5.086;2023-04-21T13:52:49;22.00;58.20
26049;DHT22;13822;51.568;5.086;2023-04-21T13:57:51;22.00;64.10
26049;DHT22;13822;51.568;5.086;2023-04-21T14:02:53;22.10;70.20
26049;DHT22;13822;51.568;5.086;2023-04-21T14:07:56;22.20;67.60
26049;DHT22;13822;51.568;5.086;2023-04-21T14:12:59;22.00;60.40
26049;DHT22;13822;51.568;5.086;2023-04-21T14:18:01;21.70;62.60
26049;DHT22;13822;51.568;5.086;2023-04-21T14:23:03;21.70;63.70
26049;DHT22;13822;51.568;5.086;2023-04-21T14:28:05;21.00;61.50
26049;DHT22;13822;51.568;5.086;2023-04-21T14:33:08;20.00;68.50
26049;DHT22;13822;51.568;5.086;2023-04-21T14:38:10;19.40;72.10
26049;DHT22;13822;51.568;5.086;2023-04-21T14:43:12;19.20;73.70
26049;DHT22;13822;51.568;5.086;2023-04-21T14:48:14;19.60;72.20
26049;DHT22;13822;51.568;5.086;2023-04-21T14:53:16;20.20;68.60
26049;DHT22;13822;51.568;5.086;2023-04-21T14:58:18;20.50;68.60
26049;DHT22;13822;51.568;5.086;2023-04-21T15:03:20;20.30;73.50
26049;DHT22;13822;51.568;5.086;2023-04-21T15:08:22;20.30;72.20
26049;DHT22;13822;51.568;5.086;2023-04-21T15:13:24;19.70;70.90
26049;DHT22;13822;51.568;5.086;2023-04-21T15:18:26;19.20;73.30
26049;DHT22;13822;51.568;5.086;2023-04-21T15:23:28;18.80;73.20
26049;DHT22;13822;51.568;5.086;2023-04-21T15:28:30;18.30;77.10
26049;DHT22;13822;51.568;5.086;2023-04-21T15:33:33;18.10;78.30
26049;DHT22;13822;51.568;5.086;2023-04-21T15:38:34;17.90;81.30
26049;DHT22;13822;51.568;5.086;2023-04-21T15:43:36;17.60;80.50
26049;DHT22;13822;51.568;5.086;2023-04-21T15:48:39;17.60;80.60
26049;DHT22;13822;51.568;5.086;2023-04-21T15:53:41;17.50;84.40
26049;DHT22;13822;51.568;5.086;2023-04-21T15:58:47;17.40;83.20
26049;DHT22;13822;51.568;5.086;2023-04-21T16:03:49;17.40;83.20
26049;DHT22;13822;51.568;5.086;2023-04-21T16:08:52;17.40;84.90
26049;DHT22;13822;51.568;5.086;2023-04-21T16:13:54;17.40;84.20
26049;DHT22;13822;51.568;5.086;2023-04-21T16:18:56;17.40;86.90
26049;DHT22;13822;51.568;5.086;2023-04-21T16:23:58;17.20;87.50
26049;DHT22;13822;51.568;5.086;2023-04-21T16:29:00;17.20;89.10
26049;DHT22;13822;51.568;5.086;2023-04-21T16:34:02;17.20;89.90
26049;DHT22;13822;51.568;5.086;2023-04-21T16:39:04;17.10;91.40
26049;DHT22;13822;51.568;5.086;2023-04-21T16:44:07;17.00;90.30
26049;DHT22;13822;51.568;5.086;2023-04-21T16:49:09;17.00;94.40
26049;DHT22;13822;51.568;5.086;2023-04-21T16:54:12;16.90;91.70
26049;DHT22;13822;51.568;5.086;2023-04-21T16:59:14;16.80;92.60
26049;DHT22;13822;51.568;5.086;2023-04-21T17:04:19;16.70;94.80
26049;DHT22;13822;51.568;5.086;2023-04-21T17:09:21;16.60;97.30
26049;DHT22;13822;51.568;5.086;2023-04-21T17:14:23;16.50;97.80
26049;DHT22;13822;51.568;5.086;2023-04-21T17:19:25;16.20;99.90
26049;DHT22;13822;51.568;5.086;2023-04-21T17:24:27;15.40;99.90
26049;DHT22;13822;51.568;5.086;2023-04-21T17:29:41;14.60;99.90
26049;DHT22;13822;51.568;5.086;2023-04-21T17:34:43;14.10;99.90
26049;DHT22;13822;51.568;5.086;2023-04-21T17:39:45;13.80;99.90
26049;DHT22;13822;51.568;5.086;2023-04-21T17:44:47;13.60;99.90
26049;DHT22;13822;51.568;5.086;2023-04-21T17:49:49;13.40;99.90
26049;DHT22;13822;51.568;5.086;2023-04-21T17:54:51;13.20;99.90
26049;DHT22;13822;51.568;5.086;2023-04-21T17:59:53;12.90;99.90
26049;DHT22;13822;51.568;5.086;2023-04-21T18:04:55;12.90;99.90
26049;DHT22;13822;51.568;5.086;2023-04-21T18:09:57;12.80;99.90
26049;DHT22;13822;51.568;5.086;2023-04-21T18:14:59;12.80;99.90
26049;DHT22;13822;51.568;5.086;2023-04-21T18:20:02;12.70;99.90
26049;DHT22;13822;51.568;5.086;2023-04-21T18:25:05;12.70;99.90
26049;DHT22;13822;51.568;5.086;2023-04-21T18:30:07;12.60;99.90
26049;DHT22;13822;51.568;5.086;2023-04-21T18:35:10;12.50;99.90
26049;DHT22;13822;51.568;5.086;2023-04-21T18:40:12;12.50;99.90
26049;DHT22;13822;51.568;5.086;2023-04-21T18:45:14;12.60;99.90
26049;DHT22;13822;51.568;5.086;2023-04-21T18:50:16;12.50;99.90
26049;DHT22;13822;51.568;5.086;2023-04-21T18:55:18;12.50;99.90
26049;DHT22;13822;51.568;5.086;2023-04-21T19:00:20;12.50;99.90
26049;DHT22;13822;51.568;5.086;2023-04-21T19:05:22;12.50;99.90
26049;DHT22;13822;51.568;5.086;2023-04-21T19:10:24;12.40;99.90
